Hillsboro, OH

4:43 PM EDT on September 20, 2014 (GMT -0400)
OHDOT 25-Highland County Garage | Change Station
CLOSE
Current Station
Personal Weather Station
Location: Hillsboro, OH
Elevation: 1100 ft
Nearby Weather Stations

Elev 1100 ft 39.20 °N, 83.60 °W | Updated 40 minutes ago

Clear
Clear
79.0 °F
Feels Like 81 °F
N
9.0
Wind Variable Wind from SSW
Gusts 17.0 mph

Today
High -- | Low -- °F
--% Chance of Precip.
Yesterday
High -- | Low -- °F
Precip. -- in
7:20 AM 7:34 PM
Waning Crescent, 10% visible
Pressure 29.97 in
Visibility 10.0 miles
Clouds Clear
Heat Index 81 °F
Dew Point 63.0 °F
Humidity 58%
Rainfall -999.00 in
Snow Depth Not available.
UV 5 out of 12
Pollen 4.60 out of 12
Air Quality Not available.
Flu Activity Not available.
METAR KILN 201954Z AUTO 22015KT 10SM CLR 27/17 A2999 RMK AO2 SLP148 T02670167

More Conditions Fewer Conditions

Pressure 29.97 in
Visibility 10.0 miles
Clouds Clear
Heat Index 81 °F
Dew Point 63.0 °F
Humidity 58%
Rainfall -999.00 in
Snow Depth Not available.
UV 5 out of 12
Pollen 4.60 out of 12
Air Quality Not available.
Flu Activity Not available.
METAR KILN 201954Z AUTO 22015KT 10SM CLR 27/17 A2999 RMK AO2 SLP148 T02670167

More Conditions Fewer Conditions

10-Day Weather Forecast

Almanac

Astronomy

Sep. 20, 2014 Rise Set
Actual Time 7:20 AM EDT 7:34 PM EDT
Civil Twilight 6:53 AM EDT 8:01 PM EDT
Nautical Twilight 6:22 AM EDT 8:32 PM EDT
Astronomical Twilight 5:50 AM EDT 9:04 PM EDT
Moon 3:59 AM EDT 5:36 PM EDT
Length of Visible Light 13h 07m
Length of Day
12h 14m
Tomorrow will be 2m 33s shorter.
Waning Crescent, 10% of the Moon is Illuminated
Today
Waning Crescent
Sep 24
New
Oct 1
First Quarter
Oct 8
Full
Oct 15
Last Quarter

Today's Extremes

State Highs State Lows

Community

WunderPhotos

Upload Photos

1,754,945 photos uploaded!

WunderBlogs® & News

Nearby

Snow Depth

Station Depth Elevation
No new snow has been reported.

Earthquake Activity

City Distance Mag. Time & Date
No recent earthquake activity has been reported nearby.
Minimum magnitude displayed is 2.5.

Coastal Water Temperatures

Place Temperature
No Stations Reporting

Nearby Weather Stations